createdAt,value
2023-02-14T00:01:31.693Z,4.30
2023-02-14T00:06:40.310Z,4.20
2023-02-14T00:11:48.609Z,4.20
2023-02-14T00:16:57.294Z,4.20
2023-02-14T00:22:05.830Z,4.20
2023-02-14T00:27:15.085Z,4.10
2023-02-14T00:32:23.626Z,4.20
2023-02-14T00:37:32.993Z,4.20
2023-02-14T00:42:41.810Z,4.10
2023-02-14T00:47:50.762Z,4.10
2023-02-14T00:53:02.432Z,4.10
2023-02-14T00:58:01.150Z,4.10
2023-02-14T01:03:09.466Z,4.20
2023-02-14T01:08:18.663Z,4.30
2023-02-14T01:13:27.128Z,4.30
2023-02-14T01:18:35.759Z,4.40
2023-02-14T01:23:44.345Z,4.40
2023-02-14T01:28:53.648Z,4.50
2023-02-14T01:34:01.910Z,4.50
2023-02-14T01:39:10.642Z,4.50
2023-02-14T01:44:19.112Z,4.50
2023-02-14T01:49:28.638Z,4.50
2023-02-14T01:54:37.334Z,4.60
2023-02-14T01:59:46.203Z,4.60
2023-02-14T02:04:54.698Z,4.40
2023-02-14T02:10:03.204Z,4.20
2023-02-14T02:15:11.617Z,4.10
2023-02-14T02:20:20.384Z,4.00
2023-02-14T02:25:28.814Z,3.90
2023-02-14T02:30:37.767Z,3.80
2023-02-14T02:35:46.360Z,3.80
2023-02-14T02:40:55.596Z,3.70
2023-02-14T02:46:04.375Z,3.70
2023-02-14T02:51:13.437Z,3.70
2023-02-14T02:56:21.987Z,3.70
2023-02-14T03:01:30.689Z,3.70
2023-02-14T03:06:38.941Z,3.60
2023-02-14T03:11:47.832Z,3.60
2023-02-14T03:16:56.206Z,3.60
2023-02-14T03:22:09.373Z,3.50
2023-02-14T03:27:07.490Z,3.60
2023-02-14T03:32:16.850Z,3.70
2023-02-14T03:37:25.459Z,3.80
2023-02-14T03:42:35.182Z,3.80
2023-02-14T03:47:44.374Z,3.90
2023-02-14T03:52:53.099Z,3.90
2023-02-14T03:58:01.728Z,4.00
2023-02-14T04:03:10.273Z,4.00
2023-02-14T04:08:18.681Z,4.00
2023-02-14T04:13:27.669Z,4.00
2023-02-14T04:18:36.576Z,4.00
2023-02-14T04:23:45.754Z,3.90
2023-02-14T04:28:54.765Z,4.00
2023-02-14T04:34:04.456Z,3.90
2023-02-14T04:39:13.006Z,3.90
2023-02-14T04:44:21.879Z,3.90
2023-02-14T04:49:30.501Z,4.00
2023-02-14T04:54:39.501Z,4.00
2023-02-14T04:59:47.976Z,4.00
2023-02-14T05:04:56.712Z,4.00
2023-02-14T05:10:05.565Z,4.00
2023-02-14T05:15:14.156Z,4.00
2023-02-14T05:20:22.637Z,4.00
2023-02-14T05:25:31.530Z,4.10
2023-02-14T05:30:40.852Z,4.10
2023-02-14T05:35:49.507Z,4.00
2023-02-14T05:40:58.631Z,4.00
2023-02-14T05:46:07.867Z,4.00
2023-02-14T05:51:16.577Z,4.00
2023-02-14T05:56:26.701Z,4.00
2023-02-14T06:01:25.156Z,4.00
2023-02-14T06:06:36.338Z,4.00
2023-02-14T06:11:42.055Z,4.00
2023-02-14T06:16:51.259Z,4.00
2023-02-14T06:22:00.414Z,4.00
2023-02-14T06:27:09.373Z,4.10
2023-02-14T06:32:18.142Z,4.10
2023-02-14T06:37:27.170Z,4.10
2023-02-14T06:42:35.881Z,4.10
2023-02-14T06:47:44.927Z,4.10
2023-02-14T06:52:54.036Z,4.00
2023-02-14T06:58:03.246Z,3.90
2023-02-14T07:03:12.165Z,3.80
2023-02-14T07:08:21.429Z,3.80
2023-02-14T07:13:30.046Z,3.90
2023-02-14T07:18:38.665Z,4.00
2023-02-14T07:23:47.918Z,4.10
2023-02-14T07:28:56.734Z,4.30
2023-02-14T07:34:05.357Z,4.50
2023-02-14T07:39:13.871Z,4.60
2023-02-14T07:44:22.252Z,4.70
2023-02-14T07:49:31.291Z,4.80
2023-02-14T07:54:40.177Z,4.80
2023-02-14T07:59:49.558Z,4.90
2023-02-14T08:04:58.253Z,4.90
2023-02-14T08:10:07.475Z,4.90
2023-02-14T08:15:16.212Z,4.90
2023-02-14T08:20:25.489Z,5.00
2023-02-14T08:25:34.296Z,5.10
2023-02-14T08:30:43.827Z,5.20
2023-02-14T08:35:52.333Z,5.20
2023-02-14T08:41:02.217Z,5.20
2023-02-14T08:46:09.820Z,5.20
2023-02-14T08:51:19.284Z,5.10
2023-02-14T08:56:28.042Z,5.10
2023-02-14T09:01:37.025Z,5.30
2023-02-14T09:06:46.300Z,5.40
2023-02-14T09:11:55.791Z,5.50
2023-02-14T09:17:04.617Z,5.50
2023-02-14T09:22:13.517Z,5.60
2023-02-14T09:27:22.534Z,5.70
2023-02-14T09:32:31.640Z,5.90
2023-02-14T09:37:40.408Z,6.00
2023-02-14T09:42:49.093Z,5.90
2023-02-14T09:47:57.585Z,5.90
2023-02-14T09:53:07.167Z,5.90
2023-02-14T09:58:16.008Z,6.00
2023-02-14T10:03:25.392Z,6.00
2023-02-14T10:08:33.689Z,6.10
2023-02-14T10:13:42.478Z,6.00
2023-02-14T10:18:51.131Z,6.00
2023-02-14T10:24:00.255Z,5.90
2023-02-14T10:29:09.302Z,6.00
2023-02-14T10:34:18.722Z,6.10
2023-02-14T10:39:27.186Z,6.20
2023-02-14T10:44:36.958Z,6.50
2023-02-14T10:49:45.589Z,6.80
2023-02-14T10:54:54.632Z,7.00
2023-02-14T11:00:03.406Z,7.00
2023-02-14T11:05:13.037Z,7.00
2023-02-14T11:10:21.640Z,6.90
2023-02-14T11:15:30.696Z,6.70
2023-02-14T11:20:39.473Z,6.40
2023-02-14T11:25:48.767Z,6.10
2023-02-14T11:30:57.921Z,6.00
2023-02-14T11:36:06.775Z,6.00
2023-02-14T11:41:16.008Z,6.20
2023-02-14T11:46:25.639Z,6.20
2023-02-14T11:51:34.326Z,6.20
2023-02-14T11:56:44.531Z,6.20
2023-02-14T12:01:43.720Z,6.10
2023-02-14T12:06:53.845Z,6.00
2023-02-14T12:16:56.753Z,5.90
2023-02-14T12:22:04.874Z,6.10
2023-02-14T12:27:13.772Z,6.10
2023-02-14T12:32:22.396Z,6.10
2023-02-14T12:37:32.449Z,6.20
2023-02-14T12:42:30.714Z,6.10
2023-02-14T12:57:44.020Z,6.00
2023-02-14T13:02:52.625Z,6.00
2023-02-14T13:08:02.552Z,5.90
2023-02-14T13:13:11.266Z,5.80
2023-02-14T13:18:20.238Z,5.60
2023-02-14T13:23:35.348Z,5.40
2023-02-14T13:28:34.727Z,5.30
2023-02-14T13:33:43.053Z,5.40
2023-02-14T13:38:52.752Z,5.40
2023-02-14T13:44:01.830Z,5.40
2023-02-14T13:49:11.080Z,5.30
2023-02-14T13:54:19.441Z,5.30
2023-02-14T13:59:29.235Z,5.20
2023-02-14T14:04:37.590Z,5.30
2023-02-14T14:09:46.835Z,5.20
2023-02-14T14:14:56.530Z,5.10
2023-02-14T14:20:05.649Z,5.00
2023-02-14T14:25:15.634Z,5.00
2023-02-14T14:30:22.669Z,4.90
2023-02-14T14:35:31.160Z,4.90
2023-02-14T14:40:40.023Z,4.80
2023-02-14T14:45:48.778Z,4.80
2023-02-14T14:50:57.940Z,4.80
2023-02-14T14:56:06.130Z,4.70
2023-02-14T15:01:15.084Z,4.60
2023-02-14T15:06:23.413Z,4.50
2023-02-14T15:11:32.141Z,4.50
2023-02-14T15:16:40.622Z,4.40
2023-02-14T15:21:49.688Z,4.40
2023-02-14T15:26:58.511Z,4.40
2023-02-14T15:32:07.355Z,4.30
2023-02-14T15:37:15.620Z,4.30
2023-02-14T15:42:24.802Z,4.20
2023-02-14T15:47:33.698Z,4.20
2023-02-14T15:52:42.602Z,4.20
2023-02-14T15:57:51.104Z,4.20
2023-02-14T16:03:03.212Z,4.10
2023-02-14T16:08:01.544Z,4.10
2023-02-14T16:13:10.646Z,4.00
2023-02-14T16:18:19.107Z,4.00
2023-02-14T16:23:28.299Z,4.00
2023-02-14T16:28:36.893Z,3.90
2023-02-14T16:33:45.514Z,3.90
2023-02-14T16:38:53.925Z,3.80
2023-02-14T16:44:02.561Z,3.80
2023-02-14T16:49:11.148Z,3.80
2023-02-14T16:54:19.779Z,3.70
2023-02-14T16:59:28.025Z,3.80
2023-02-14T17:04:36.974Z,3.80
2023-02-14T17:09:45.589Z,3.80
2023-02-14T17:14:55.245Z,3.80
2023-02-14T17:20:04.073Z,3.70
2023-02-14T17:25:13.580Z,3.70
2023-02-14T17:30:23.380Z,3.70
2023-02-14T17:35:32.798Z,3.70
2023-02-14T17:40:41.678Z,3.60
2023-02-14T17:45:44.567Z,3.60
2023-02-14T17:50:53.304Z,3.60
2023-02-14T17:56:02.912Z,3.60
2023-02-14T18:01:12.996Z,3.60
2023-02-14T18:06:12.139Z,3.60
2023-02-14T18:11:21.454Z,3.60
2023-02-14T18:16:31.637Z,3.60
2023-02-14T18:21:30.434Z,3.60
2023-02-14T18:26:40.063Z,3.60
2023-02-14T18:31:50.778Z,3.50
2023-02-14T18:36:58.599Z,3.50
2023-02-14T18:42:07.581Z,3.50
2023-02-14T18:47:17.160Z,3.50
2023-02-14T18:52:26.776Z,3.60
2023-02-14T18:57:35.880Z,3.60
2023-02-14T19:02:47.422Z,3.60
2023-02-14T19:07:47.134Z,3.70
2023-02-14T19:12:56.167Z,3.70
2023-02-14T19:18:06.434Z,3.70
2023-02-14T19:23:05.295Z,3.60
2023-02-14T19:28:14.758Z,3.60
2023-02-14T19:33:23.932Z,3.40
2023-02-14T19:38:33.201Z,3.40
2023-02-14T19:43:41.548Z,3.30
2023-02-14T19:48:51.034Z,3.30
2023-02-14T19:53:59.229Z,3.20
2023-02-14T19:59:08.215Z,3.20
2023-02-14T20:04:17.269Z,3.10
2023-02-14T20:09:25.946Z,3.10
2023-02-14T20:14:49.809Z,3.10
2023-02-14T20:19:43.741Z,3.10
2023-02-14T20:24:52.298Z,3.20
2023-02-14T20:30:01.186Z,3.20
2023-02-14T20:35:09.740Z,3.20
2023-02-14T20:40:18.528Z,3.10
2023-02-14T20:45:26.996Z,3.10
2023-02-14T20:50:36.404Z,3.00
2023-02-14T20:55:45.179Z,3.00
2023-02-14T21:00:56.334Z,2.80
2023-02-14T21:06:01.818Z,2.80
2023-02-14T21:11:10.919Z,2.70
2023-02-14T21:16:19.400Z,2.70
2023-02-14T21:21:28.055Z,2.70
2023-02-14T21:26:36.361Z,2.70
2023-02-14T21:31:45.696Z,2.60
2023-02-14T21:36:54.131Z,2.60
2023-02-14T21:42:03.429Z,2.50
2023-02-14T21:47:11.480Z,2.50
2023-02-14T21:52:21.264Z,2.40
2023-02-14T21:57:29.832Z,2.30
2023-02-14T22:02:42.371Z,2.30
2023-02-14T22:07:40.567Z,2.10
2023-02-14T22:12:49.528Z,2.00
2023-02-14T22:17:58.324Z,2.00
2023-02-14T22:23:07.186Z,1.90
2023-02-14T22:28:15.263Z,1.80
2023-02-14T22:33:24.252Z,1.80
2023-02-14T22:38:33.589Z,1.70
2023-02-14T22:43:42.665Z,1.60
2023-02-14T22:48:50.929Z,1.50
2023-02-14T22:54:00.095Z,1.50
2023-02-14T22:59:08.649Z,1.40
2023-02-14T23:04:18.208Z,1.30
2023-02-14T23:09:26.274Z,1.30
2023-02-14T23:14:34.934Z,1.20
2023-02-14T23:19:43.526Z,1.20
2023-02-14T23:24:52.097Z,1.10
2023-02-14T23:30:00.549Z,1.00
2023-02-14T23:35:09.393Z,1.00
2023-02-14T23:40:18.129Z,0.90
2023-02-14T23:45:27.355Z,0.80
2023-02-14T23:50:35.604Z,0.80
2023-02-14T23:55:44.972Z,0.70
